createdAt,value
2017-12-15T00:02:56.242Z,2.6
2017-12-15T00:13:20.815Z,2.6
2017-12-15T00:23:38.876Z,2.6
2017-12-15T00:33:52.566Z,2.6
2017-12-15T00:44:09.202Z,2.6
2017-12-15T01:04:39.864Z,2.7
2017-12-15T01:15:04.610Z,2.7
2017-12-15T01:25:50.883Z,2.7
2017-12-15T01:36:05.543Z,2.7
2017-12-15T01:46:19.720Z,2.7
2017-12-15T01:56:33.294Z,2.7
2017-12-15T02:06:47.245Z,2.7
2017-12-15T02:17:35.399Z,2.7
2017-12-15T02:27:49.273Z,2.7
2017-12-15T02:38:02.461Z,2.7
2017-12-15T02:48:15.812Z,2.7
2017-12-15T02:58:38.501Z,2.7
2017-12-15T03:08:52.478Z,2.7
2017-12-15T03:19:06.714Z,2.7
2017-12-15T03:29:53.712Z,2.7
2017-12-15T03:40:07.784Z,2.7
2017-12-15T03:50:21.226Z,2.7
2017-12-15T04:00:35.328Z,2.6
2017-12-15T04:10:50.540Z,2.6
2017-12-15T04:21:04.687Z,2.5
2017-12-15T04:31:23.937Z,2.5
2017-12-15T04:41:37.349Z,2.5
2017-12-15T04:51:52.150Z,2.4
2017-12-15T05:02:08.779Z,2.4
2017-12-15T05:12:22.107Z,2.4
2017-12-15T05:22:35.373Z,2.4
2017-12-15T05:32:59.898Z,2.3
2017-12-15T05:43:13.994Z,2.3
2017-12-15T05:53:59.911Z,2.3
2017-12-15T06:04:13.562Z,2.3
2017-12-15T06:14:41.155Z,2.3
2017-12-15T06:24:55.045Z,2.3
2017-12-15T06:35:08.933Z,2.3
2017-12-15T06:45:22.707Z,2.3
2017-12-15T06:55:36.508Z,2.3
2017-12-15T07:05:50.113Z,2.3
2017-12-15T07:16:04.287Z,2.3
2017-12-15T07:26:18.284Z,2.3
2017-12-15T07:37:14.445Z,2.4
2017-12-15T07:47:28.637Z,2.3
2017-12-15T07:57:42.872Z,2.4
2017-12-15T08:07:54.868Z,2.4
2017-12-15T08:18:08.373Z,2.4
2017-12-15T08:28:22.534Z,2.4
2017-12-15T08:39:07.133Z,2.5
2017-12-15T08:49:20.640Z,2.5
2017-12-15T08:59:33.960Z,2.6
2017-12-15T09:09:48.087Z,2.6
2017-12-15T09:20:01.402Z,2.6
2017-12-15T09:30:15.614Z,2.7
2017-12-15T09:40:26.945Z,2.7
2017-12-15T09:50:41.240Z,2.8
2017-12-15T10:00:55.299Z,2.9
2017-12-15T10:11:39.807Z,3.0
2017-12-15T10:22:29.780Z,3.1
2017-12-15T10:32:43.269Z,3.1
2017-12-15T10:42:57.276Z,3.2
2017-12-15T10:53:10.793Z,3.3
2017-12-15T11:03:25.078Z,3.4
2017-12-15T11:13:38.977Z,3.5
2017-12-15T11:23:52.209Z,3.6
2017-12-15T11:34:05.851Z,3.7
2017-12-15T11:44:33.535Z,3.7
2017-12-15T11:54:47.618Z,3.8
2017-12-15T12:05:01.766Z,3.9
2017-12-15T12:15:15.891Z,4.0
2017-12-15T12:25:29.869Z,4.0
2017-12-15T12:35:43.869Z,4.1
2017-12-15T12:45:57.312Z,4.2
2017-12-15T12:56:10.962Z,4.2
2017-12-15T13:06:25.032Z,4.2
2017-12-15T13:16:36.354Z,4.2
2017-12-15T13:26:56.076Z,4.2
2017-12-15T13:39:07.638Z,4.2
2017-12-15T13:51:31.607Z,4.2
2017-12-15T14:02:47.598Z,4.2
2017-12-15T14:13:11.598Z,4.3
2017-12-15T14:35:17.180Z,4.3
2017-12-15T14:46:37.903Z,4.3
2017-12-15T14:57:36.103Z,4.3
2017-12-15T15:09:17.843Z,4.2
2017-12-15T15:20:25.135Z,4.2
2017-12-15T15:31:25.092Z,4.2
2017-12-15T15:53:04.478Z,4.1
2017-12-15T16:14:28.389Z,3.9
2017-12-15T16:25:45.636Z,3.8
2017-12-15T16:36:08.772Z,3.8
2017-12-15T16:47:06.703Z,3.8
2017-12-15T16:57:42.036Z,3.8
2017-12-15T17:08:09.152Z,3.7
2017-12-15T17:30:33.589Z,3.6
2017-12-15T17:40:47.381Z,3.6
2017-12-15T17:50:59.209Z,3.6
2017-12-15T18:01:13.041Z,3.5
2017-12-15T18:11:25.138Z,3.5
2017-12-15T18:21:39.173Z,3.4
2017-12-15T18:31:53.303Z,3.4
2017-12-15T18:42:07.859Z,3.4
2017-12-15T18:52:21.500Z,3.3
2017-12-15T19:03:18.768Z,3.3
2017-12-15T19:13:40.713Z,3.3
2017-12-15T19:24:03.780Z,3.3
2017-12-15T19:34:37.731Z,3.2
2017-12-15T19:45:01.440Z,3.0
2017-12-15T19:55:31.946Z,2.8
2017-12-15T20:06:26.332Z,2.7
2017-12-15T20:17:55.232Z,2.4
2017-12-15T20:29:59.126Z,2.3
2017-12-15T20:40:34.840Z,2.3
2017-12-15T20:50:48.933Z,2.2
2017-12-15T21:01:02.986Z,2.1
2017-12-15T21:11:17.075Z,2.0
2017-12-15T21:21:30.969Z,1.8
2017-12-15T21:31:44.918Z,1.7
2017-12-15T21:42:30.040Z,1.4
2017-12-15T21:52:42.079Z,1.4
2017-12-15T22:02:55.608Z,1.4
2017-12-15T22:13:09.900Z,1.3
2017-12-15T22:23:58.767Z,1.3
2017-12-15T22:34:10.087Z,1.3
2017-12-15T22:44:24.332Z,1.4
2017-12-15T22:54:38.578Z,1.4
2017-12-15T23:04:52.954Z,1.4
2017-12-15T23:15:07.190Z,1.4
2017-12-15T23:25:19.036Z,1.5
2017-12-15T23:35:30.286Z,1.5
2017-12-15T23:46:15.212Z,1.6
2017-12-15T23:56:29.619Z,1.6
